Time;durP1;ratioP1;P1;durP2;ratioP2;P2;SDS_P1;SDS_P2;PMS_P1;PMS_P2;Temp;Humidity;BMP_temperature;BMP_pressure;BME280_temperature;BME280_humidity;BME280_pressure;Samples;Min_cycle;Max_cycle;Signal;HPM_P1;HPM_P2
2022/11/10 00:02:18;;;;;;;17.42;5.05;;;9.30;99.90;;;;;;7370273;19;20037;-50
2022/11/10 00:05:04;;;;;;;18.75;5.18;;;9.30;99.90;;;;;;7371217;19;20568;-37
2022/11/10 00:07:49;;;;;;;18.30;5.43;;;9.30;99.90;;;;;;7362803;19;20516;-37
2022/11/10 00:10:55;;;;;;;16.88;4.47;;;9.30;99.90;;;;;;7362861;19;20441;-37
2022/11/10 00:17:05;;;;;;;16.80;5.38;;;9.30;99.90;;;;;;7364015;19;20010;-37
2022/11/10 00:19:50;;;;;;;10.30;4.55;;;9.20;99.90;;;;;;7370236;19;20018;-37
2022/11/10 00:22:37;;;;;;;17.20;6.00;;;9.30;99.90;;;;;;7373041;19;20368;-37
2022/11/10 00:25:23;;;;;;;21.83;5.68;;;9.30;99.90;;;;;;7374953;19;20376;-38
2022/11/10 00:28:07;;;;;;;18.00;6.43;;;9.20;99.90;;;;;;7375716;19;20025;-37
2022/11/10 00:30:53;;;;;;;19.00;5.68;;;9.20;99.90;;;;;;7377171;19;20024;-38
2022/11/10 00:33:40;;;;;;;14.75;5.40;;;9.20;99.90;;;;;;7377090;19;20037;-37
2022/11/10 00:36:26;;;;;;;15.43;5.65;;;9.20;99.90;;;;;;7374115;19;20485;-37
2022/11/10 00:39:11;;;;;;;13.30;6.15;;;9.20;99.90;;;;;;7375198;19;20065;-46
2022/11/10 00:41:56;;;;;;;22.08;6.28;;;9.10;99.90;;;;;;7379330;19;21600;-37
2022/11/10 00:44:41;;;;;;;20.85;6.50;;;9.10;99.90;;;;;;7378237;19;20025;-37
2022/11/10 00:47:25;;;;;;;23.35;6.28;;;9.10;99.90;;;;;;7378580;19;20022;-36
2022/11/10 00:50:10;;;;;;;17.40;6.10;;;9.10;99.90;;;;;;7371786;19;20033;-37
2022/11/10 00:52:55;;;;;;;15.85;6.68;;;9.10;99.90;;;;;;7371253;19;20022;-37
2022/11/10 00:55:41;;;;;;;21.75;6.72;;;9.10;99.90;;;;;;7374238;19;20037;-36
2022/11/10 00:58:26;;;;;;;17.38;6.03;;;9.00;99.90;;;;;;7373622;19;20508;-36
2022/11/10 01:01:12;;;;;;;17.67;6.28;;;9.00;99.90;;;;;;7376447;19;20038;-37
2022/11/10 01:03:57;;;;;;;13.38;6.68;;;8.90;99.90;;;;;;7371904;19;20022;-37
2022/11/10 01:06:41;;;;;;;15.80;6.50;;;8.90;99.90;;;;;;7376634;19;20029;-37
2022/11/10 01:09:26;;;;;;;17.33;6.35;;;8.90;99.90;;;;;;7374280;19;20022;-39
2022/11/10 01:12:11;;;;;;;19.55;6.95;;;8.90;99.90;;;;;;7373010;19;20027;-37
2022/11/10 01:14:56;;;;;;;19.45;6.57;;;8.90;99.90;;;;;;7373458;19;20023;-37
2022/11/10 01:17:41;;;;;;;19.40;7.20;;;8.80;99.90;;;;;;7375001;19;20018;-37
2022/11/10 01:20:26;;;;;;;15.98;7.75;;;8.80;99.90;;;;;;7372581;19;20115;-37
2022/11/10 01:23:10;;;;;;;18.85;8.35;;;8.80;99.90;;;;;;7369602;19;20434;-37
2022/11/10 01:26:00;;;;;;;25.65;8.63;;;8.80;99.90;;;;;;7364402;19;20613;-37
2022/11/10 01:28:46;;;;;;;14.82;8.48;;;8.70;99.90;;;;;;7371416;19;20024;-37
2022/11/10 01:31:31;;;;;;;14.90;7.72;;;8.80;99.90;;;;;;7373863;19;20500;-37
2022/11/10 01:34:16;;;;;;;20.08;9.88;;;8.80;99.90;;;;;;7371519;19;20632;-37
2022/11/10 01:37:01;;;;;;;19.25;9.38;;;8.80;99.90;;;;;;7375228;19;20014;-37
2022/11/10 01:39:46;;;;;;;19.40;8.23;;;8.70;99.90;;;;;;7365664;19;20022;-37
2022/11/10 01:42:48;;;;;;;20.35;8.27;;;8.70;99.90;;;;;;7364615;19;20038;-37
2022/11/10 01:46:00;;;;;;;21.48;9.55;;;8.70;99.90;;;;;;7363924;19;20017;-37
2022/11/10 01:48:54;;;;;;;25.40;9.00;;;8.70;99.90;;;;;;7375600;19;20778;-37
2022/11/10 01:52:03;;;;;;;20.70;9.30;;;8.70;99.90;;;;;;7376281;19;20426;-37
2022/11/10 01:54:49;;;;;;;20.17;8.55;;;8.70;99.90;;;;;;7373664;19;20026;-37
2022/11/10 01:57:34;;;;;;;18.15;8.27;;;8.70;99.90;;;;;;7370567;19;20018;-37
2022/11/10 02:00:20;;;;;;;17.95;8.60;;;8.70;99.90;;;;;;7369296;19;20453;-37
2022/11/10 02:03:25;;;;;;;23.65;7.97;;;8.70;99.90;;;;;;7374155;19;20152;-37
2022/11/10 02:06:11;;;;;;;21.75;9.00;;;8.60;99.90;;;;;;7372106;19;20026;-49
2022/11/10 02:08:59;;;;;;;18.35;8.05;;;8.70;99.90;;;;;;7374319;19;20454;-45
2022/11/10 02:11:45;;;;;;;15.30;8.65;;;8.70;99.90;;;;;;7371523;19;20308;-48
2022/11/10 02:14:30;;;;;;;24.00;8.98;;;8.70;99.90;;;;;;7362830;19;21081;-49
2022/11/10 02:17:16;;;;;;;18.67;8.98;;;8.70;99.90;;;;;;7367634;19;20050;-49
2022/11/10 02:20:04;;;;;;;20.23;7.72;;;8.70;99.90;;;;;;7368913;19;20018;-48
2022/11/10 02:22:49;;;;;;;18.73;8.02;;;8.70;99.90;;;;;;7375923;19;20018;-47
2022/11/10 02:25:34;;;;;;;19.15;7.18;;;8.70;99.90;;;;;;7375699;19;20015;-37
2022/11/10 02:28:18;;;;;;;13.93;7.95;;;8.70;99.90;;;;;;7371950;19;20030;-37
2022/11/10 02:31:05;;;;;;;20.70;8.15;;;8.80;99.90;;;;;;7368058;19;20409;-48
2022/11/10 02:33:50;;;;;;;16.98;7.53;;;8.80;99.90;;;;;;7371958;19;20022;-48
2022/11/10 02:36:34;;;;;;;22.48;8.30;;;8.80;99.90;;;;;;7370669;19;20038;-46
2022/11/10 02:39:19;;;;;;;13.80;6.35;;;8.80;99.90;;;;;;7372948;19;20435;-37
2022/11/10 02:42:09;;;;;;;18.92;7.78;;;8.80;99.90;;;;;;7367800;19;20018;-48
2022/11/10 02:44:54;;;;;;;16.98;6.65;;;8.90;99.90;;;;;;7370497;19;20035;-48
2022/11/10 02:47:39;;;;;;;15.15;7.18;;;8.90;99.90;;;;;;7369621;19;20485;-37
2022/11/10 02:50:24;;;;;;;18.33;7.88;;;8.90;99.90;;;;;;7371570;19;20452;-48
2022/11/10 02:53:09;;;;;;;20.00;7.57;;;8.90;99.90;;;;;;7374240;19;20095;-37
2022/11/10 02:55:54;;;;;;;17.58;7.63;;;8.90;99.90;;;;;;7375530;19;20014;-37
2022/11/10 02:58:39;;;;;;;16.83;8.13;;;9.00;99.90;;;;;;7374402;19;20021;-37
2022/11/10 03:01:24;;;;;;;21.52;8.27;;;9.00;99.90;;;;;;7370948;19;20022;-39
2022/11/10 03:04:08;;;;;;;26.52;9.05;;;9.00;99.90;;;;;;7371666;19;20022;-38
2022/11/10 03:06:53;;;;;;;21.08;10.27;;;9.00;99.90;;;;;;7375048;19;20077;-45
2022/11/10 03:09:38;;;;;;;22.48;9.02;;;9.00;99.90;;;;;;7371260;19;20026;-44
2022/11/10 03:12:22;;;;;;;24.05;9.85;;;9.00;99.90;;;;;;7368949;19;20018;-43
2022/11/10 03:15:07;;;;;;;19.00;8.43;;;9.00;99.90;;;;;;7367609;19;20014;-47
2022/11/10 03:17:52;;;;;;;20.10;9.57;;;9.00;99.90;;;;;;7365522;19;20046;-48
2022/11/10 03:20:37;;;;;;;28.02;9.63;;;9.10;99.90;;;;;;7369445;19;20019;-44
2022/11/10 03:23:22;;;;;;;21.02;10.30;;;9.10;99.90;;;;;;7370794;19;20026;-46
2022/11/10 03:26:07;;;;;;;26.23;11.40;;;9.10;99.90;;;;;;7373863;19;20018;-45
2022/11/10 03:28:52;;;;;;;25.92;11.65;;;9.10;99.90;;;;;;7374110;19;20019;-47
2022/11/10 03:31:37;;;;;;;30.08;12.52;;;9.20;99.90;;;;;;7373411;19;20014;-48
2022/11/10 03:34:22;;;;;;;27.33;12.35;;;9.20;99.90;;;;;;7371768;19;21007;-37
2022/11/10 03:37:07;;;;;;;22.80;12.13;;;9.20;99.90;;;;;;7373425;19;20465;-37
2022/11/10 03:39:52;;;;;;;24.23;12.80;;;9.20;99.90;;;;;;7366385;19;20022;-37
2022/11/10 03:42:42;;;;;;;27.48;12.73;;;9.20;99.90;;;;;;7367019;19;20034;-44
2022/11/10 03:45:27;;;;;;;21.13;12.57;;;9.20;99.90;;;;;;7366608;19;20039;-46
2022/11/10 03:48:12;;;;;;;30.95;13.02;;;9.20;99.90;;;;;;7369425;19;20489;-45
2022/11/10 03:50:57;;;;;;;26.20;12.55;;;9.20;99.90;;;;;;7369184;19;20026;-37
2022/11/10 03:53:41;;;;;;;23.23;13.63;;;9.20;99.90;;;;;;7370845;19;20022;-37
2022/11/10 03:56:27;;;;;;;27.48;13.38;;;9.20;99.90;;;;;;7371063;19;20426;-38
2022/11/10 03:59:12;;;;;;;31.85;14.00;;;9.20;99.90;;;;;;7378980;19;20460;-44
2022/11/10 04:01:56;;;;;;;30.27;14.95;;;9.10;99.90;;;;;;7372899;19;20018;-37
2022/11/10 04:10:49;;;;;;;26.55;13.90;;;9.10;99.90;;;;;;7373079;19;20021;-37
2022/11/10 04:16:37;;;;;;;31.92;14.82;;;9.20;99.90;;;;;;7371030;19;20018;-44
2022/11/10 04:19:22;;;;;;;35.17;14.70;;;9.20;99.90;;;;;;7371484;19;20648;-45
2022/11/10 04:23:25;;;;;;;35.92;14.32;;;9.20;99.90;;;;;;7375952;19;20021;-47
2022/11/10 04:25:12;;;;;;;30.27;14.52;;;9.30;99.90;;;;;;7375193;19;20022;-38
2022/11/10 04:27:57;;;;;;;36.17;15.75;;;9.40;99.90;;;;;;7376236;19;20119;-37
2022/11/10 04:30:43;;;;;;;32.92;13.10;;;9.30;99.90;;;;;;7379198;19;20018;-44
2022/11/10 04:33:28;;;;;;;29.70;13.32;;;9.30;99.90;;;;;;7372694;19;20503;-47
2022/11/10 04:36:18;;;;;;;31.73;15.13;;;9.30;99.90;;;;;;7375375;19;20043;-44
2022/11/10 04:39:05;;;;;;;32.45;13.68;;;9.30;99.90;;;;;;7373839;19;20018;-48
2022/11/10 04:41:50;;;;;;;32.92;14.13;;;9.20;99.90;;;;;;7374520;19;20477;-37
2022/11/10 04:44:35;;;;;;;27.70;14.52;;;9.20;99.90;;;;;;7373233;19;20019;-45
2022/11/10 04:47:19;;;;;;;34.90;13.98;;;9.30;99.90;;;;;;7373927;19;20018;-45
2022/11/10 04:50:05;;;;;;;31.75;13.82;;;9.20;99.90;;;;;;7375155;19;20323;-44
2022/11/10 04:52:50;;;;;;;27.30;14.20;;;9.20;99.90;;;;;;7372755;19;20074;-44
2022/11/10 04:55:39;;;;;;;27.42;14.63;;;9.30;99.90;;;;;;7378311;19;20039;-44
2022/11/10 04:58:24;;;;;;;33.17;14.68;;;9.30;99.90;;;;;;7377066;19;20423;-45
2022/11/10 05:01:13;;;;;;;29.13;13.13;;;9.20;99.90;;;;;;7375620;19;20015;-46
2022/11/10 05:03:58;;;;;;;26.95;13.90;;;9.30;99.90;;;;;;7377265;19;20022;-49
2022/11/10 05:06:43;;;;;;;31.48;15.23;;;9.30;99.90;;;;;;7378138;19;20496;-45
2022/11/10 05:09:27;;;;;;;31.48;15.48;;;9.30;99.90;;;;;;7370540;19;20042;-45
2022/11/10 05:12:12;;;;;;;35.33;15.07;;;9.30;99.90;;;;;;7377188;19;20033;-45
2022/11/10 05:14:57;;;;;;;29.75;14.68;;;9.20;99.90;;;;;;7370980;19;20022;-45
2022/11/10 05:17:42;;;;;;;35.97;15.77;;;9.20;99.90;;;;;;7372673;19;20015;-45
2022/11/10 05:20:27;;;;;;;36.03;15.43;;;9.20;99.90;;;;;;7367174;19;20019;-44
2022/11/10 05:26:17;;;;;;;28.60;14.73;;;9.20;99.90;;;;;;7375112;19;20027;-47
2022/11/10 05:29:01;;;;;;;32.28;15.23;;;9.30;99.90;;;;;;7376892;19;20118;-48
2022/11/10 05:31:46;;;;;;;31.48;15.05;;;9.30;99.90;;;;;;7376976;19;20465;-46
2022/11/10 05:34:30;;;;;;;29.98;15.05;;;9.30;99.90;;;;;;7374253;19;20014;-44
2022/11/10 05:37:15;;;;;;;27.17;14.95;;;9.30;99.90;;;;;;7374373;19;20014;-45
2022/11/10 05:40:00;;;;;;;33.03;16.48;;;9.30;99.90;;;;;;7371299;19;20467;-46
2022/11/10 05:42:47;;;;;;;31.52;15.95;;;9.30;99.90;;;;;;7372550;19;20014;-45
2022/11/10 05:45:32;;;;;;;36.78;17.75;;;9.30;99.90;;;;;;7373967;19;20038;-46
2022/11/10 05:48:17;;;;;;;40.70;17.73;;;9.30;99.90;;;;;;7373240;19;20490;-46
2022/11/10 05:51:02;;;;;;;23.40;14.93;;;9.40;99.90;;;;;;7373345;19;20046;-47
2022/11/10 05:53:47;;;;;;;36.67;17.25;;;9.40;99.90;;;;;;7374927;19;20022;-43
2022/11/10 05:56:32;;;;;;;31.27;16.70;;;9.40;99.90;;;;;;7366253;19;20060;-48
2022/11/10 05:59:17;;;;;;;33.92;16.88;;;9.40;99.90;;;;;;7365468;19;20350;-45
2022/11/10 06:02:02;;;;;;;31.02;17.63;;;9.40;99.90;;;;;;7368127;19;20457;-46
2022/11/10 06:04:46;;;;;;;37.20;17.95;;;9.40;99.90;;;;;;7373870;19;20018;-49
2022/11/10 06:07:31;;;;;;;32.45;17.60;;;9.40;99.90;;;;;;7374664;19;20022;-47
2022/11/10 06:10:16;;;;;;;38.67;18.88;;;9.40;99.90;;;;;;7373562;19;20054;-45
2022/11/10 06:13:02;;;;;;;39.90;19.77;;;9.40;99.90;;;;;;7373753;19;20433;-46
2022/11/10 06:15:47;;;;;;;29.77;17.58;;;9.50;99.90;;;;;;7373777;19;20511;-45
2022/11/10 06:18:32;;;;;;;34.58;19.88;;;9.50;99.90;;;;;;7367022;19;20021;-49
2022/11/10 06:21:16;;;;;;;37.35;18.02;;;9.60;99.90;;;;;;7365504;19;20090;-49
2022/11/10 06:24:01;;;;;;;26.88;17.35;;;9.50;99.90;;;;;;7369327;19;20492;-48
2022/11/10 06:26:46;;;;;;;33.47;18.58;;;9.60;99.90;;;;;;7369811;19;20018;-48
2022/11/10 06:29:31;;;;;;;35.30;16.33;;;9.50;99.90;;;;;;7368001;19;20031;-45
2022/11/10 06:32:15;;;;;;;31.77;16.58;;;9.50;99.90;;;;;;7372114;19;20022;-46
2022/11/10 06:35:00;;;;;;;27.20;15.90;;;9.50;99.90;;;;;;7373226;19;20026;-46
2022/11/10 06:37:55;;;;;;;31.10;17.23;;;9.50;99.90;;;;;;7368497;19;20024;-49
2022/11/10 06:40:40;;;;;;;37.33;17.60;;;9.50;99.90;;;;;;7371605;19;20479;-45
2022/11/10 06:43:26;;;;;;;29.95;17.73;;;9.50;99.90;;;;;;7367515;19;20093;-49
2022/11/10 06:46:11;;;;;;;34.53;17.90;;;9.50;99.90;;;;;;7370082;19;20014;-46
2022/11/10 06:48:56;;;;;;;27.23;15.52;;;9.50;99.90;;;;;;7371358;19;20047;-45
2022/11/10 06:51:41;;;;;;;31.42;15.70;;;9.50;99.90;;;;;;7372846;19;20086;-46
2022/11/10 06:54:26;;;;;;;33.13;15.18;;;9.50;99.90;;;;;;7372702;19;20025;-49
2022/11/10 06:57:11;;;;;;;29.33;14.93;;;9.40;99.90;;;;;;7372259;19;20018;-46
2022/11/10 06:59:56;;;;;;;30.40;15.45;;;9.40;99.90;;;;;;7373198;19;20022;-46
2022/11/10 07:02:41;;;;;;;31.17;14.60;;;9.50;99.90;;;;;;7369392;19;20022;-38
2022/11/10 07:05:27;;;;;;;31.73;15.10;;;9.40;99.90;;;;;;7372218;19;20637;-38
2022/11/10 07:08:15;;;;;;;28.15;14.45;;;9.50;99.90;;;;;;7372534;19;20046;-38
2022/11/10 07:11:00;;;;;;;34.58;15.40;;;9.50;99.90;;;;;;7375416;19;20051;-38
2022/11/10 07:13:45;;;;;;;31.60;16.60;;;9.50;99.90;;;;;;7370356;19;20022;-39
2022/11/10 07:16:30;;;;;;;30.02;16.45;;;9.50;99.90;;;;;;7368763;19;20014;-38
2022/11/10 07:19:15;;;;;;;33.60;15.80;;;9.60;99.90;;;;;;7370314;19;20082;-47
2022/11/10 07:21:59;;;;;;;28.10;15.95;;;9.60;99.90;;;;;;7369546;19;20283;-49
2022/11/10 07:24:44;;;;;;;35.05;16.02;;;9.70;99.90;;;;;;7373712;19;20042;-49
2022/11/10 07:27:29;;;;;;;29.40;15.50;;;9.70;99.90;;;;;;7371092;19;20019;-47
2022/11/10 07:30:15;;;;;;;28.25;15.82;;;9.80;99.90;;;;;;7372693;19;20027;-38
2022/11/10 07:33:11;;;;;;;32.20;16.58;;;9.90;99.90;;;;;;7369996;19;20049;-39
2022/11/10 07:35:58;;;;;;;31.10;16.15;;;9.90;99.90;;;;;;7372624;19;20837;-38
2022/11/10 07:38:43;;;;;;;33.70;15.77;;;10.00;99.90;;;;;;7369206;19;20015;-38
2022/11/10 07:41:28;;;;;;;30.75;16.88;;;10.00;99.90;;;;;;7367656;19;20041;-48
2022/11/10 07:44:13;;;;;;;35.38;15.77;;;10.00;99.90;;;;;;7373169;19;20585;-46
2022/11/10 07:46:58;;;;;;;26.85;15.65;;;10.00;99.90;;;;;;7370320;19;20091;-46
2022/11/10 07:49:43;;;;;;;29.65;15.68;;;10.00;99.90;;;;;;7372430;19;20461;-51
2022/11/10 07:52:28;;;;;;;28.35;14.80;;;10.00;99.90;;;;;;7370352;19;20044;-48
2022/11/10 07:55:12;;;;;;;27.95;15.93;;;10.00;99.90;;;;;;7371362;19;20474;-39
2022/11/10 07:57:57;;;;;;;27.80;16.80;;;10.20;99.90;;;;;;7369688;19;20804;-38
2022/11/10 08:00:45;;;;;;;33.90;16.50;;;10.10;99.90;;;;;;7371747;19;20030;-39
2022/11/10 08:03:31;;;;;;;27.33;15.50;;;10.10;99.90;;;;;;7367089;19;20106;-38
2022/11/10 08:06:16;;;;;;;32.53;16.42;;;10.10;99.90;;;;;;7369868;19;20018;-46
2022/11/10 08:09:01;;;;;;;30.52;16.63;;;10.10;99.90;;;;;;7368617;19;20450;-46
2022/11/10 08:11:47;;;;;;;28.05;16.13;;;10.10;99.90;;;;;;7368017;19;20025;-45
2022/11/10 08:14:32;;;;;;;26.48;16.52;;;10.20;99.90;;;;;;7364428;19;20596;-46
2022/11/10 08:17:17;;;;;;;30.38;16.70;;;10.20;99.90;;;;;;7370559;19;20018;-50
2022/11/10 08:20:03;;;;;;;34.80;16.73;;;10.20;99.90;;;;;;7364521;19;20982;-47
2022/11/10 08:22:48;;;;;;;29.42;16.20;;;10.30;99.90;;;;;;7363361;19;20045;-39
2022/11/10 08:25:35;;;;;;;33.00;16.23;;;10.40;99.90;;;;;;7370248;19;20562;-40
2022/11/10 08:28:19;;;;;;;25.55;16.73;;;10.90;99.90;;;;;;7367763;19;20022;-38
2022/11/10 08:31:05;;;;;;;20.90;14.13;;;11.50;99.90;;;;;;7365045;19;20028;-39
2022/11/10 08:33:50;;;;;;;22.45;13.82;;;12.10;99.90;;;;;;7365190;19;20509;-39
2022/11/10 08:36:36;;;;;;;23.65;12.15;;;12.40;99.90;;;;;;7368696;19;20042;-46
2022/11/10 08:39:21;;;;;;;20.00;11.38;;;12.80;99.90;;;;;;7363613;19;20022;-39
2022/11/10 08:42:06;;;;;;;23.55;10.63;;;12.90;99.90;;;;;;7365186;19;20495;-39
2022/11/10 08:44:52;;;;;;;18.65;10.98;;;13.20;99.90;;;;;;7376350;19;20486;-47
2022/11/10 08:47:38;;;;;;;18.95;9.20;;;13.20;99.90;;;;;;7375245;19;20448;-45
2022/11/10 08:50:23;;;;;;;21.10;9.20;;;13.60;99.90;;;;;;7369694;19;20308;-46
2022/11/10 08:53:16;;;;;;;16.23;8.90;;;13.60;99.90;;;;;;7376256;19;20020;-39
2022/11/10 08:56:01;;;;;;;18.90;8.60;;;13.60;99.90;;;;;;7374226;19;20383;-46
2022/11/10 08:58:46;;;;;;;14.63;8.45;;;13.90;99.90;;;;;;7373874;19;20511;-47
2022/11/10 09:01:31;;;;;;;16.08;7.80;;;13.60;99.90;;;;;;7372823;19;20022;-46
2022/11/10 09:04:15;;;;;;;17.00;7.90;;;13.60;99.90;;;;;;7374484;19;20014;-40
2022/11/10 09:07:01;;;;;;;17.15;8.27;;;13.50;99.90;;;;;;7374472;19;20124;-49
2022/11/10 09:09:45;;;;;;;16.92;7.57;;;13.40;99.90;;;;;;7374625;19;20033;-48
2022/11/10 09:12:30;;;;;;;19.40;9.05;;;13.70;99.90;;;;;;7372125;19;20052;-49
2022/11/10 09:15:15;;;;;;;16.85;6.82;;;14.20;99.90;;;;;;7371735;19;20518;-39
2022/11/10 09:18:03;;;;;;;16.27;7.13;;;14.10;99.90;;;;;;7371402;19;20074;-39
2022/11/10 09:20:48;;;;;;;18.65;8.25;;;14.40;99.90;;;;;;7372254;19;20018;-39
2022/11/10 09:23:33;;;;;;;15.35;7.55;;;14.70;99.90;;;;;;7369873;19;20018;-40
2022/11/10 09:26:18;;;;;;;16.52;7.15;;;15.10;99.90;;;;;;7372173;19;20021;-40
2022/11/10 09:29:03;;;;;;;12.45;6.97;;;15.00;99.90;;;;;;7368494;19;20453;-50
2022/11/10 09:31:48;;;;;;;18.15;7.63;;;15.30;99.90;;;;;;7371016;19;20025;-51
2022/11/10 09:34:33;;;;;;;20.27;7.18;;;15.30;99.90;;;;;;7366484;19;20031;-49
2022/11/10 09:37:18;;;;;;;14.10;6.15;;;15.30;99.90;;;;;;7368847;19;20014;-49
2022/11/10 09:40:04;;;;;;;14.30;6.40;;;15.30;99.90;;;;;;7369189;19;20479;-51
2022/11/10 09:42:55;;;;;;;14.27;6.28;;;15.30;99.90;;;;;;7371624;19;20410;-46
2022/11/10 09:45:45;;;;;;;12.82;6.88;;;15.60;99.90;;;;;;7369023;19;20018;-47
2022/11/10 09:48:40;;;;;;;18.08;7.03;;;15.70;99.90;;;;;;7368614;19;20042;-49
2022/11/10 09:51:33;;;;;;;17.27;6.72;;;15.70;99.90;;;;;;7374447;19;20022;-49
2022/11/10 09:54:36;;;;;;;16.42;6.97;;;16.00;99.90;;;;;;7372764;19;20022;-51
2022/11/10 09:57:24;;;;;;;12.77;5.95;;;16.40;99.90;;;;;;7373281;19;20022;-49
2022/11/10 10:00:15;;;;;;;13.27;6.32;;;16.80;99.90;;;;;;7366951;19;20534;-42
2022/11/10 10:03:05;;;;;;;16.27;6.20;;;16.80;99.90;;;;;;7368093;19;20122;-50
2022/11/10 10:06:11;;;;;;;17.42;5.72;;;16.70;99.90;;;;;;7370650;19;20025;-40
2022/11/10 10:09:24;;;;;;;10.07;4.78;;;16.50;99.90;;;;;;7368204;19;21266;-46
2022/11/10 10:12:26;;;;;;;12.18;4.15;;;16.70;99.90;;;;;;7366767;19;20431;-48
2022/11/10 10:15:34;;;;;;;19.67;5.20;;;16.20;99.90;;;;;;7369327;19;20409;-50
2022/11/10 10:18:41;;;;;;;10.95;4.32;;;15.50;99.90;;;;;;7363809;19;20011;-51
2022/11/10 10:22:01;;;;;;;12.35;4.47;;;15.30;99.90;;;;;;7360775;19;20030;-49
2022/11/10 10:24:47;;;;;;;15.50;5.13;;;15.30;99.90;;;;;;7370734;19;20377;-50
2022/11/10 10:27:37;;;;;;;10.77;4.05;;;15.70;99.90;;;;;;7367907;19;20028;-48
2022/11/10 10:30:22;;;;;;;16.38;4.65;;;15.90;99.90;;;;;;7371561;19;20032;-51
2022/11/10 10:33:19;;;;;;;15.02;5.03;;;15.30;99.90;;;;;;7366294;19;20099;-50
2022/11/10 10:36:09;;;;;;;14.73;4.85;;;15.40;99.90;;;;;;7370642;19;20023;-42
2022/11/10 10:39:05;;;;;;;13.15;4.65;;;15.30;99.90;;;;;;7367224;19;20014;-41
2022/11/10 10:41:49;;;;;;;12.88;4.00;;;15.10;99.90;;;;;;7367366;19;20046;-47
2022/11/10 10:44:35;;;;;;;14.30;4.43;;;14.80;99.90;;;;;;7365304;19;20925;-46
2022/11/10 10:47:35;;;;;;;13.98;4.13;;;14.80;99.90;;;;;;7370619;19;20019;-50
2022/11/10 10:50:29;;;;;;;10.65;3.78;;;15.30;99.90;;;;;;7369370;19;20021;-49
2022/11/10 10:53:18;;;;;;;13.93;5.05;;;15.30;99.90;;;;;;7370639;19;20360;-50
2022/11/10 10:56:15;;;;;;;14.48;4.07;;;15.20;99.90;;;;;;7369724;19;20087;-49
2022/11/10 10:59:03;;;;;;;17.75;4.88;;;15.00;99.90;;;;;;7367822;19;20018;-41
2022/11/10 11:01:53;;;;;;;16.48;4.35;;;14.80;99.90;;;;;;7367325;19;20035;-40
2022/11/10 11:04:38;;;;;;;13.48;4.22;;;14.70;99.90;;;;;;7367319;19;20033;-43
2022/11/10 11:07:24;;;;;;;14.63;4.03;;;14.60;99.90;;;;;;7367212;19;20483;-49
2022/11/10 11:10:23;;;;;;;12.40;3.50;;;14.50;99.90;;;;;;7371630;19;20727;-51
2022/11/10 11:13:28;;;;;;;15.15;4.18;;;14.50;99.90;;;;;;7370173;19;20021;-43
2022/11/10 11:16:13;;;;;;;12.55;3.72;;;14.50;99.90;;;;;;7368865;19;20038;-48
2022/11/10 11:18:58;;;;;;;12.15;3.85;;;14.70;99.90;;;;;;7368576;19;20027;-45
2022/11/10 11:22:14;;;;;;;14.98;3.83;;;14.80;99.90;;;;;;7361501;19;20127;-48
2022/11/10 11:25:28;;;;;;;18.70;4.15;;;14.80;99.90;;;;;;7368363;19;20102;-50
2022/11/10 11:28:47;;;;;;;14.73;3.90;;;14.90;99.90;;;;;;7368070;19;20035;-49
2022/11/10 11:31:57;;;;;;;13.93;3.88;;;14.80;99.90;;;;;;7366158;19;20019;-47
2022/11/10 11:35:21;;;;;;;15.85;3.65;;;14.60;99.90;;;;;;7355550;19;20490;-48
2022/11/10 11:38:12;;;;;;;12.88;3.95;;;14.50;99.90;;;;;;7363349;19;20046;-46
2022/11/10 11:41:10;;;;;;;20.85;4.55;;;14.40;99.90;;;;;;7362981;19;20042;-50
2022/11/10 11:44:29;;;;;;;14.13;3.80;;;14.30;99.90;;;;;;7363740;19;20036;-48
2022/11/10 11:47:23;;;;;;;14.63;4.15;;;14.40;99.90;;;;;;7364468;19;20626;-47
2022/11/10 11:50:21;;;;;;;16.17;4.53;;;14.50;99.90;;;;;;7364022;19;20035;-48
2022/11/10 11:53:45;;;;;;;14.05;3.60;;;14.50;99.90;;;;;;7363220;19;20384;-49
2022/11/10 11:56:34;;;;;;;14.20;3.33;;;14.50;99.90;;;;;;7357800;19;20025;-47
2022/11/10 11:59:49;;;;;;;13.32;3.47;;;14.60;99.90;;;;;;7362571;19;20019;-46
2022/11/10 12:02:52;;;;;;;13.98;3.33;;;14.70;99.90;;;;;;7363588;19;20023;-46
2022/11/10 12:06:01;;;;;;;12.23;3.15;;;14.80;99.90;;;;;;7362044;19;20022;-47
2022/11/10 12:09:16;;;;;;;17.92;4.60;;;14.90;99.90;;;;;;7360019;19;20482;-47
2022/11/10 12:12:06;;;;;;;13.70;4.28;;;14.90;99.90;;;;;;7361214;19;20022;-47
2022/11/10 12:15:00;;;;;;;18.33;3.28;;;14.80;99.90;;;;;;7363005;19;20373;-47
2022/11/10 12:17:54;;;;;;;12.48;3.10;;;14.80;99.90;;;;;;7366368;19;20058;-46
2022/11/10 12:20:45;;;;;;;14.43;2.95;;;14.70;99.90;;;;;;7364714;19;20014;-45
2022/11/10 12:23:38;;;;;;;13.65;2.67;;;14.60;99.90;;;;;;7367679;19;20026;-46
2022/11/10 12:26:47;;;;;;;15.73;3.13;;;14.60;99.90;;;;;;7371466;19;20029;-48
2022/11/10 12:29:44;;;;;;;12.27;2.50;;;14.50;99.90;;;;;;7373775;19;20482;-47
2022/11/10 12:32:35;;;;;;;14.85;3.70;;;14.40;99.90;;;;;;7372102;19;20098;-41
2022/11/10 12:35:30;;;;;;;10.25;2.90;;;14.40;99.90;;;;;;7376677;19;20478;-41
2022/11/10 12:38:43;;;;;;;13.30;2.83;;;14.40;99.90;;;;;;7367214;19;20019;-40
2022/11/10 12:41:38;;;;;;;11.73;2.40;;;14.40;99.90;;;;;;7368263;19;20015;-40
2022/11/10 12:44:34;;;;;;;17.02;3.08;;;14.40;99.90;;;;;;7371744;19;20498;-40
2022/11/10 12:47:21;;;;;;;12.90;2.83;;;14.40;99.90;;;;;;7373461;19;20023;-47
2022/11/10 12:50:15;;;;;;;17.77;2.75;;;14.40;99.90;;;;;;7372628;19;20022;-47
2022/11/10 12:53:11;;;;;;;17.83;3.42;;;14.50;99.90;;;;;;7371353;19;20014;-39
2022/11/10 12:56:08;;;;;;;12.52;3.13;;;14.60;99.90;;;;;;7367919;19;20022;-39
2022/11/10 12:59:19;;;;;;;11.88;2.50;;;14.60;99.90;;;;;;7371232;19;20014;-43
2022/11/10 13:02:23;;;;;;;13.55;2.90;;;14.60;99.90;;;;;;7367410;19;20022;-40
2022/11/10 13:05:14;;;;;;;7.68;2.40;;;14.60;99.90;;;;;;7367063;19;20019;-46
2022/11/10 13:08:12;;;;;;;11.10;2.78;;;14.70;99.90;;;;;;7368724;19;20457;-46
2022/11/10 13:11:19;;;;;;;13.82;3.38;;;14.70;99.90;;;;;;7370156;19;20018;-46
2022/11/10 13:14:27;;;;;;;14.98;5.25;;;14.70;99.90;;;;;;7371217;19;20503;-44
2022/11/10 13:17:38;;;;;;;9.05;3.25;;;14.60;99.90;;;;;;7370314;19;20022;-45
2022/11/10 13:20:38;;;;;;;10.57;2.40;;;14.50;99.90;;;;;;7364785;19;20358;-45
2022/11/10 13:23:43;;;;;;;10.25;2.40;;;14.40;99.90;;;;;;7373900;19;20019;-45
2022/11/10 13:26:43;;;;;;;13.75;2.83;;;14.50;99.90;;;;;;7370333;19;20018;-48
2022/11/10 13:29:35;;;;;;;10.80;3.30;;;14.40;99.90;;;;;;7369161;19;20018;-45
2022/11/10 13:32:24;;;;;;;13.43;2.40;;;14.40;99.90;;;;;;7371967;19;20022;-46
2022/11/10 13:35:39;;;;;;;10.98;2.65;;;14.40;99.90;;;;;;7370750;19;20025;-48
2022/11/10 13:38:40;;;;;;;11.38;2.70;;;14.50;99.90;;;;;;7371441;19;20018;-45
2022/11/10 13:41:26;;;;;;;11.13;3.00;;;14.60;99.90;;;;;;7370627;19;20024;-46
2022/11/10 13:44:34;;;;;;;12.55;2.70;;;14.50;99.90;;;;;;7372734;19;20018;-47
2022/11/10 13:48:00;;;;;;;11.43;3.15;;;14.40;99.90;;;;;;7371840;19;20082;-47
2022/11/10 13:50:53;;;;;;;15.55;2.58;;;14.40;99.90;;;;;;7368156;19;20478;-45
2022/11/10 13:54:02;;;;;;;13.40;4.03;;;14.40;99.90;;;;;;7368065;19;20105;-45
2022/11/10 13:57:15;;;;;;;13.95;3.17;;;14.40;99.90;;;;;;7370906;19;20054;-47
2022/11/10 14:00:06;;;;;;;13.55;2.55;;;14.40;99.90;;;;;;7369665;19;20035;-44
2022/11/10 14:02:53;;;;;;;14.65;2.45;;;14.40;99.90;;;;;;7370432;19;20266;-48
2022/11/10 14:05:40;;;;;;;9.57;2.92;;;14.30;99.90;;;;;;7370728;19;20022;-45
2022/11/10 14:08:28;;;;;;;11.07;2.40;;;14.30;99.90;;;;;;7371649;19;20343;-45
2022/11/10 14:11:34;;;;;;;13.00;2.83;;;14.30;99.90;;;;;;7366092;19;20039;-48
2022/11/10 14:14:29;;;;;;;10.80;2.45;;;14.30;99.90;;;;;;7367457;19;20025;-46
2022/11/10 14:17:26;;;;;;;9.68;2.28;;;14.30;99.90;;;;;;7370387;19;20050;-48
2022/11/10 14:20:34;;;;;;;13.43;3.83;;;14.20;99.90;;;;;;7366524;19;20061;-47
2022/11/10 14:23:29;;;;;;;13.02;2.90;;;14.20;99.90;;;;;;7367009;19;20796;-45
2022/11/10 14:26:36;;;;;;;12.35;2.80;;;14.20;99.90;;;;;;7366799;19;20025;-46
2022/11/10 14:29:29;;;;;;;13.80;3.33;;;14.20;99.90;;;;;;7369217;19;20031;-48
2022/11/10 14:32:20;;;;;;;14.88;3.42;;;14.10;99.90;;;;;;7367761;19;20763;-46
2022/11/10 14:35:21;;;;;;;13.18;3.03;;;14.10;99.90;;;;;;7367634;19;20018;-45
2022/11/10 14:38:13;;;;;;;13.27;3.08;;;14.10;99.90;;;;;;7369568;19;20126;-48
2022/11/10 14:41:00;;;;;;;12.90;3.28;;;14.10;99.90;;;;;;7368480;19;20372;-46
2022/11/10 14:44:00;;;;;;;12.48;3.20;;;14.00;99.90;;;;;;7368293;19;20020;-46
2022/11/10 14:46:45;;;;;;;16.73;3.30;;;14.00;99.90;;;;;;7366214;19;20462;-48
2022/11/10 14:49:30;;;;;;;12.88;2.65;;;14.00;99.90;;;;;;7368417;19;20358;-46
2022/11/10 14:52:15;;;;;;;10.65;3.03;;;14.00;99.90;;;;;;7370580;19;20358;-47